Fort Gibson, Oklahoma
Current Conditions -  °F | °C
As of 7:53 AM on Monday 24 Nov 2014 (Local Time) from KMKO Reporting Station
Clear Clear  
Wind Chill: 29°   Ceiling: Unl
Heat Index: 37°   Visibility: 10mi
Dew Point: 30°   Wind: 12mph
Humidity: 76%   Direction: 260°W
Pressure: 29.91"   Gusts: NA
Location:  35.8°N, 95.25°W
Report Text: KMKO 241353Z AUTO 26010KT 10SM CLR 03/M01 A2991 RMK AO2 SLP129 T00281011
Loading
Personal Weather Stations






























Interactive Weather Map New forecast layout! Learn more

10-Day Weather Forecast

Advertisements
Track Severe Weather on mobile